sensor_id;sensor_type;location;lat;lon;timestamp;P1;durP1;ratioP1;P2;durP2;ratioP2
10088;SDS011;51898;49.864;8.550;2022-07-29T00:02:41;6.17;;;3.40;;
10088;SDS011;51898;49.864;8.550;2022-07-29T00:05:43;8.37;;;3.50;;
10088;SDS011;51898;49.864;8.550;2022-07-29T00:08:45;7.73;;;3.20;;
10088;SDS011;51898;49.864;8.550;2022-07-29T00:11:46;8.13;;;3.97;;
10088;SDS011;51898;49.864;8.550;2022-07-29T00:14:48;5.03;;;3.67;;
10088;SDS011;51898;49.864;8.550;2022-07-29T00:17:50;5.40;;;3.77;;
10088;SDS011;51898;49.864;8.550;2022-07-29T00:20:52;6.63;;;3.43;;
10088;SDS011;51898;49.864;8.550;2022-07-29T00:23:53;6.00;;;3.47;;
10088;SDS011;51898;49.864;8.550;2022-07-29T00:26:55;3.37;;;3.17;;
10088;SDS011;51898;49.864;8.550;2022-07-29T00:29:57;7.60;;;3.40;;
10088;SDS011;51898;49.864;8.550;2022-07-29T00:32:58;6.37;;;3.27;;
10088;SDS011;51898;49.864;8.550;2022-07-29T00:36:00;4.60;;;3.60;;
10088;SDS011;51898;49.864;8.550;2022-07-29T00:39:02;4.27;;;3.83;;
10088;SDS011;51898;49.864;8.550;2022-07-29T00:42:04;3.80;;;3.50;;
10088;SDS011;51898;49.864;8.550;2022-07-29T00:45:06;5.53;;;3.60;;
10088;SDS011;51898;49.864;8.550;2022-07-29T00:48:08;3.30;;;3.00;;
10088;SDS011;51898;49.864;8.550;2022-07-29T00:51:10;4.90;;;3.60;;
10088;SDS011;51898;49.864;8.550;2022-07-29T00:54:12;8.17;;;3.67;;
10088;SDS011;51898;49.864;8.550;2022-07-29T00:57:15;3.43;;;3.10;;
10088;SDS011;51898;49.864;8.550;2022-07-29T01:00:20;9.60;;;3.67;;
10088;SDS011;51898;49.864;8.550;2022-07-29T01:03:24;5.00;;;3.53;;
10088;SDS011;51898;49.864;8.550;2022-07-29T01:06:26;3.67;;;3.37;;
10088;SDS011;51898;49.864;8.550;2022-07-29T01:09:28;3.80;;;3.20;;
10088;SDS011;51898;49.864;8.550;2022-07-29T01:12:48;5.80;;;3.70;;
10088;SDS011;51898;49.864;8.550;2022-07-29T01:15:53;5.10;;;3.50;;
10088;SDS011;51898;49.864;8.550;2022-07-29T01:19:00;5.67;;;3.40;;
10088;SDS011;51898;49.864;8.550;2022-07-29T01:26:22;4.50;;;3.30;;
10088;SDS011;51898;49.864;8.550;2022-07-29T01:29:41;6.00;;;3.67;;
10088;SDS011;51898;49.864;8.550;2022-07-29T01:32:48;4.20;;;3.60;;
10088;SDS011;51898;49.864;8.550;2022-07-29T01:35:54;3.83;;;3.20;;
10088;SDS011;51898;49.864;8.550;2022-07-29T01:39:02;6.33;;;3.60;;
10088;SDS011;51898;49.864;8.550;2022-07-29T01:42:15;9.73;;;3.90;;
10088;SDS011;51898;49.864;8.550;2022-07-29T01:45:30;4.23;;;3.50;;
10088;SDS011;51898;49.864;8.550;2022-07-29T01:48:47;4.90;;;3.60;;
10088;SDS011;51898;49.864;8.550;2022-07-29T01:51:57;4.73;;;3.13;;
10088;SDS011;51898;49.864;8.550;2022-07-29T01:55:07;11.30;;;4.10;;
10088;SDS011;51898;49.864;8.550;2022-07-29T01:58:14;4.33;;;3.60;;
10088;SDS011;51898;49.864;8.550;2022-07-29T02:01:20;4.70;;;3.60;;
10088;SDS011;51898;49.864;8.550;2022-07-29T02:04:24;7.07;;;3.63;;
10088;SDS011;51898;49.864;8.550;2022-07-29T02:07:30;8.03;;;3.37;;
10088;SDS011;51898;49.864;8.550;2022-07-29T02:10:34;5.10;;;4.20;;
10088;SDS011;51898;49.864;8.550;2022-07-29T02:13:39;4.50;;;3.20;;
10088;SDS011;51898;49.864;8.550;2022-07-29T02:16:43;6.40;;;3.60;;
10088;SDS011;51898;49.864;8.550;2022-07-29T02:19:46;3.97;;;3.53;;
10088;SDS011;51898;49.864;8.550;2022-07-29T02:22:49;3.80;;;3.50;;
10088;SDS011;51898;49.864;8.550;2022-07-29T02:25:55;6.60;;;3.50;;
10088;SDS011;51898;49.864;8.550;2022-07-29T02:28:58;4.23;;;3.83;;
10088;SDS011;51898;49.864;8.550;2022-07-29T02:32:01;4.00;;;3.63;;
10088;SDS011;51898;49.864;8.550;2022-07-29T02:35:04;12.23;;;3.73;;
10088;SDS011;51898;49.864;8.550;2022-07-29T02:38:08;6.33;;;3.93;;
10088;SDS011;51898;49.864;8.550;2022-07-29T02:41:43;4.33;;;3.27;;
10088;SDS011;51898;49.864;8.550;2022-07-29T02:44:49;4.03;;;3.63;;
10088;SDS011;51898;49.864;8.550;2022-07-29T02:47:51;7.37;;;3.70;;
10088;SDS011;51898;49.864;8.550;2022-07-29T02:50:57;5.63;;;3.87;;
10088;SDS011;51898;49.864;8.550;2022-07-29T02:54:07;5.60;;;3.83;;
10088;SDS011;51898;49.864;8.550;2022-07-29T02:57:14;3.60;;;3.30;;
10088;SDS011;51898;49.864;8.550;2022-07-29T03:00:23;5.20;;;3.83;;
10088;SDS011;51898;49.864;8.550;2022-07-29T03:03:34;4.53;;;3.63;;
10088;SDS011;51898;49.864;8.550;2022-07-29T03:06:38;5.57;;;3.50;;
10088;SDS011;51898;49.864;8.550;2022-07-29T03:09:41;4.80;;;3.83;;
10088;SDS011;51898;49.864;8.550;2022-07-29T03:12:44;7.20;;;3.90;;
10088;SDS011;51898;49.864;8.550;2022-07-29T03:15:47;6.80;;;3.73;;
10088;SDS011;51898;49.864;8.550;2022-07-29T03:18:49;10.27;;;4.27;;
10088;SDS011;51898;49.864;8.550;2022-07-29T03:21:52;8.40;;;4.53;;
10088;SDS011;51898;49.864;8.550;2022-07-29T03:24:56;4.73;;;4.10;;
10088;SDS011;51898;49.864;8.550;2022-07-29T03:27:57;8.20;;;4.03;;
10088;SDS011;51898;49.864;8.550;2022-07-29T03:30:59;6.10;;;3.73;;
10088;SDS011;51898;49.864;8.550;2022-07-29T03:34:01;6.17;;;3.93;;
10088;SDS011;51898;49.864;8.550;2022-07-29T03:37:03;6.00;;;3.83;;
10088;SDS011;51898;49.864;8.550;2022-07-29T03:40:07;5.03;;;4.40;;
10088;SDS011;51898;49.864;8.550;2022-07-29T03:43:11;7.17;;;4.10;;
10088;SDS011;51898;49.864;8.550;2022-07-29T03:46:16;5.00;;;4.50;;
10088;SDS011;51898;49.864;8.550;2022-07-29T03:49:21;4.40;;;4.00;;
10088;SDS011;51898;49.864;8.550;2022-07-29T03:52:24;7.00;;;4.60;;
10088;SDS011;51898;49.864;8.550;2022-07-29T03:55:26;6.00;;;4.20;;
10088;SDS011;51898;49.864;8.550;2022-07-29T03:58:31;4.93;;;4.27;;
10088;SDS011;51898;49.864;8.550;2022-07-29T04:01:34;7.60;;;3.80;;
10088;SDS011;51898;49.864;8.550;2022-07-29T04:04:36;5.63;;;4.20;;
10088;SDS011;51898;49.864;8.550;2022-07-29T04:07:38;6.37;;;3.60;;
10088;SDS011;51898;49.864;8.550;2022-07-29T04:10:40;5.13;;;4.40;;
10088;SDS011;51898;49.864;8.550;2022-07-29T04:13:42;4.30;;;3.87;;
10088;SDS011;51898;49.864;8.550;2022-07-29T04:16:43;4.93;;;4.20;;
10088;SDS011;51898;49.864;8.550;2022-07-29T04:19:45;4.93;;;3.77;;
10088;SDS011;51898;49.864;8.550;2022-07-29T04:22:47;8.50;;;4.07;;
10088;SDS011;51898;49.864;8.550;2022-07-29T04:25:48;9.50;;;5.10;;
10088;SDS011;51898;49.864;8.550;2022-07-29T04:28:50;4.20;;;3.80;;
10088;SDS011;51898;49.864;8.550;2022-07-29T04:31:51;6.40;;;4.30;;
10088;SDS011;51898;49.864;8.550;2022-07-29T04:34:53;4.23;;;3.83;;
10088;SDS011;51898;49.864;8.550;2022-07-29T04:37:55;9.83;;;4.23;;
10088;SDS011;51898;49.864;8.550;2022-07-29T04:40:57;5.67;;;4.93;;
10088;SDS011;51898;49.864;8.550;2022-07-29T04:43:59;8.03;;;4.60;;
10088;SDS011;51898;49.864;8.550;2022-07-29T04:47:07;10.73;;;4.83;;
10088;SDS011;51898;49.864;8.550;2022-07-29T04:50:09;7.07;;;4.20;;
10088;SDS011;51898;49.864;8.550;2022-07-29T04:53:11;9.93;;;4.50;;
10088;SDS011;51898;49.864;8.550;2022-07-29T04:56:13;5.30;;;4.20;;
10088;SDS011;51898;49.864;8.550;2022-07-29T04:59:14;6.37;;;4.30;;
10088;SDS011;51898;49.864;8.550;2022-07-29T05:02:16;12.40;;;4.57;;
10088;SDS011;51898;49.864;8.550;2022-07-29T05:05:18;10.43;;;4.47;;
10088;SDS011;51898;49.864;8.550;2022-07-29T05:08:20;5.60;;;5.10;;
10088;SDS011;51898;49.864;8.550;2022-07-29T05:11:21;9.80;;;4.60;;
10088;SDS011;51898;49.864;8.550;2022-07-29T05:14:30;5.90;;;4.90;;
10088;SDS011;51898;49.864;8.550;2022-07-29T05:17:31;6.63;;;5.00;;
10088;SDS011;51898;49.864;8.550;2022-07-29T05:20:33;6.40;;;4.37;;
10088;SDS011;51898;49.864;8.550;2022-07-29T05:23:35;7.77;;;4.67;;
10088;SDS011;51898;49.864;8.550;2022-07-29T05:26:37;10.80;;;4.23;;
10088;SDS011;51898;49.864;8.550;2022-07-29T05:29:39;7.57;;;4.50;;
10088;SDS011;51898;49.864;8.550;2022-07-29T05:32:45;5.97;;;4.40;;
10088;SDS011;51898;49.864;8.550;2022-07-29T05:35:47;5.57;;;3.90;;
10088;SDS011;51898;49.864;8.550;2022-07-29T05:38:48;10.13;;;4.40;;
10088;SDS011;51898;49.864;8.550;2022-07-29T05:41:52;5.77;;;5.00;;
10088;SDS011;51898;49.864;8.550;2022-07-29T05:44:53;6.57;;;4.87;;
10088;SDS011;51898;49.864;8.550;2022-07-29T05:47:55;6.43;;;4.47;;
10088;SDS011;51898;49.864;8.550;2022-07-29T05:50:56;4.47;;;4.03;;
10088;SDS011;51898;49.864;8.550;2022-07-29T05:53:58;5.00;;;4.50;;
10088;SDS011;51898;49.864;8.550;2022-07-29T05:57:00;8.43;;;4.50;;
10088;SDS011;51898;49.864;8.550;2022-07-29T06:00:02;4.93;;;4.43;;
10088;SDS011;51898;49.864;8.550;2022-07-29T06:03:04;7.33;;;5.27;;
10088;SDS011;51898;49.864;8.550;2022-07-29T06:06:09;5.33;;;4.83;;
10088;SDS011;51898;49.864;8.550;2022-07-29T06:09:11;6.77;;;4.77;;
10088;SDS011;51898;49.864;8.550;2022-07-29T06:12:14;10.93;;;4.70;;
10088;SDS011;51898;49.864;8.550;2022-07-29T06:15:16;7.73;;;5.27;;
10088;SDS011;51898;49.864;8.550;2022-07-29T06:18:17;6.13;;;4.73;;
10088;SDS011;51898;49.864;8.550;2022-07-29T06:21:19;7.27;;;5.00;;
10088;SDS011;51898;49.864;8.550;2022-07-29T06:24:21;10.00;;;4.93;;
10088;SDS011;51898;49.864;8.550;2022-07-29T06:27:22;6.87;;;5.07;;
10088;SDS011;51898;49.864;8.550;2022-07-29T06:30:24;10.27;;;4.50;;
10088;SDS011;51898;49.864;8.550;2022-07-29T06:33:26;5.23;;;4.73;;
10088;SDS011;51898;49.864;8.550;2022-07-29T06:36:28;5.67;;;5.00;;
10088;SDS011;51898;49.864;8.550;2022-07-29T06:39:30;6.20;;;5.60;;
10088;SDS011;51898;49.864;8.550;2022-07-29T06:42:31;7.00;;;5.67;;
10088;SDS011;51898;49.864;8.550;2022-07-29T06:45:33;14.87;;;5.10;;
10088;SDS011;51898;49.864;8.550;2022-07-29T06:48:45;6.73;;;5.70;;
10088;SDS011;51898;49.864;8.550;2022-07-29T06:51:48;9.80;;;5.93;;
10088;SDS011;51898;49.864;8.550;2022-07-29T06:54:50;7.27;;;5.23;;
10088;SDS011;51898;49.864;8.550;2022-07-29T06:57:52;7.60;;;5.60;;
10088;SDS011;51898;49.864;8.550;2022-07-29T07:00:54;7.43;;;5.50;;
10088;SDS011;51898;49.864;8.550;2022-07-29T07:03:56;10.63;;;5.43;;
10088;SDS011;51898;49.864;8.550;2022-07-29T07:06:58;6.60;;;5.90;;
10088;SDS011;51898;49.864;8.550;2022-07-29T07:10:00;5.47;;;4.97;;
10088;SDS011;51898;49.864;8.550;2022-07-29T07:13:02;8.87;;;6.00;;
10088;SDS011;51898;49.864;8.550;2022-07-29T07:16:06;6.13;;;5.53;;
10088;SDS011;51898;49.864;8.550;2022-07-29T07:19:07;10.20;;;5.83;;
10088;SDS011;51898;49.864;8.550;2022-07-29T07:22:09;8.63;;;5.60;;
10088;SDS011;51898;49.864;8.550;2022-07-29T07:25:11;6.17;;;5.67;;
10088;SDS011;51898;49.864;8.550;2022-07-29T07:28:13;7.83;;;5.53;;
10088;SDS011;51898;49.864;8.550;2022-07-29T07:31:15;6.07;;;5.50;;
10088;SDS011;51898;49.864;8.550;2022-07-29T07:34:16;5.77;;;5.20;;
10088;SDS011;51898;49.864;8.550;2022-07-29T07:37:29;5.53;;;5.10;;
10088;SDS011;51898;49.864;8.550;2022-07-29T07:40:31;5.90;;;5.40;;
10088;SDS011;51898;49.864;8.550;2022-07-29T07:43:33;6.53;;;5.77;;
10088;SDS011;51898;49.864;8.550;2022-07-29T07:46:35;6.50;;;5.90;;
10088;SDS011;51898;49.864;8.550;2022-07-29T07:49:38;5.53;;;5.03;;
10088;SDS011;51898;49.864;8.550;2022-07-29T07:52:51;12.57;;;6.77;;
10088;SDS011;51898;49.864;8.550;2022-07-29T07:55:54;6.87;;;6.20;;
10088;SDS011;51898;49.864;8.550;2022-07-29T07:59:13;5.80;;;5.40;;
10088;SDS011;51898;49.864;8.550;2022-07-29T08:02:14;6.40;;;5.80;;
10088;SDS011;51898;49.864;8.550;2022-07-29T08:05:16;5.80;;;5.30;;
10088;SDS011;51898;49.864;8.550;2022-07-29T08:08:18;6.20;;;5.60;;
10088;SDS011;51898;49.864;8.550;2022-07-29T08:11:20;6.23;;;5.83;;
10088;SDS011;51898;49.864;8.550;2022-07-29T08:14:22;6.17;;;5.53;;
10088;SDS011;51898;49.864;8.550;2022-07-29T08:17:23;6.47;;;6.00;;
10088;SDS011;51898;49.864;8.550;2022-07-29T08:20:25;7.00;;;5.77;;
10088;SDS011;51898;49.864;8.550;2022-07-29T08:23:27;7.77;;;6.07;;
10088;SDS011;51898;49.864;8.550;2022-07-29T08:26:48;6.00;;;5.37;;
10088;SDS011;51898;49.864;8.550;2022-07-29T08:29:50;6.37;;;5.77;;
10088;SDS011;51898;49.864;8.550;2022-07-29T08:32:52;8.93;;;6.03;;
10088;SDS011;51898;49.864;8.550;2022-07-29T08:35:55;6.00;;;5.40;;
10088;SDS011;51898;49.864;8.550;2022-07-29T08:38:57;5.83;;;5.43;;
10088;SDS011;51898;49.864;8.550;2022-07-29T08:41:59;6.73;;;5.73;;
10088;SDS011;51898;49.864;8.550;2022-07-29T08:45:02;6.00;;;5.57;;
10088;SDS011;51898;49.864;8.550;2022-07-29T08:48:04;6.00;;;5.50;;
10088;SDS011;51898;49.864;8.550;2022-07-29T08:51:17;6.60;;;6.00;;
10088;SDS011;51898;49.864;8.550;2022-07-29T08:54:20;7.23;;;6.27;;
10088;SDS011;51898;49.864;8.550;2022-07-29T08:57:24;6.87;;;5.90;;
10088;SDS011;51898;49.864;8.550;2022-07-29T09:00:27;9.40;;;6.83;;
10088;SDS011;51898;49.864;8.550;2022-07-29T09:03:31;7.53;;;5.90;;
10088;SDS011;51898;49.864;8.550;2022-07-29T09:06:34;5.97;;;5.57;;
10088;SDS011;51898;49.864;8.550;2022-07-29T09:09:39;6.90;;;5.93;;
10088;SDS011;51898;49.864;8.550;2022-07-29T09:12:41;6.63;;;6.13;;
10088;SDS011;51898;49.864;8.550;2022-07-29T09:15:43;9.27;;;6.20;;
10088;SDS011;51898;49.864;8.550;2022-07-29T09:18:45;9.10;;;6.60;;
10088;SDS011;51898;49.864;8.550;2022-07-29T09:21:47;6.07;;;5.57;;
10088;SDS011;51898;49.864;8.550;2022-07-29T09:25:03;6.37;;;5.77;;
10088;SDS011;51898;49.864;8.550;2022-07-29T09:28:06;6.57;;;6.07;;
10088;SDS011;51898;49.864;8.550;2022-07-29T09:31:08;6.83;;;6.23;;
10088;SDS011;51898;49.864;8.550;2022-07-29T09:34:11;7.00;;;6.40;;
10088;SDS011;51898;49.864;8.550;2022-07-29T09:37:29;6.23;;;5.60;;
10088;SDS011;51898;49.864;8.550;2022-07-29T09:40:31;6.83;;;6.23;;
10088;SDS011;51898;49.864;8.550;2022-07-29T09:43:33;6.53;;;6.13;;
10088;SDS011;51898;49.864;8.550;2022-07-29T09:46:35;6.57;;;5.97;;
10088;SDS011;51898;49.864;8.550;2022-07-29T09:53:01;6.13;;;5.63;;
10088;SDS011;51898;49.864;8.550;2022-07-29T09:56:03;6.20;;;5.70;;
10088;SDS011;51898;49.864;8.550;2022-07-29T09:59:06;7.70;;;5.80;;
10088;SDS011;51898;49.864;8.550;2022-07-29T10:02:12;7.37;;;6.23;;
10088;SDS011;51898;49.864;8.550;2022-07-29T10:05:23;9.23;;;6.80;;
10088;SDS011;51898;49.864;8.550;2022-07-29T10:08:25;6.80;;;6.10;;
10088;SDS011;51898;49.864;8.550;2022-07-29T10:11:27;8.87;;;6.80;;
10088;SDS011;51898;49.864;8.550;2022-07-29T10:14:50;8.43;;;6.17;;
10088;SDS011;51898;49.864;8.550;2022-07-29T10:17:52;7.27;;;6.27;;
10088;SDS011;51898;49.864;8.550;2022-07-29T10:20:55;6.23;;;5.63;;
10088;SDS011;51898;49.864;8.550;2022-07-29T10:23:58;6.80;;;6.30;;
10088;SDS011;51898;49.864;8.550;2022-07-29T10:27:02;6.87;;;6.27;;
10088;SDS011;51898;49.864;8.550;2022-07-29T10:30:05;6.90;;;6.23;;
10088;SDS011;51898;49.864;8.550;2022-07-29T10:36:56;7.37;;;6.80;;
10088;SDS011;51898;49.864;8.550;2022-07-29T10:40:11;7.27;;;6.67;;
10088;SDS011;51898;49.864;8.550;2022-07-29T10:43:42;6.97;;;6.47;;
10088;SDS011;51898;49.864;8.550;2022-07-29T10:46:51;8.23;;;6.40;;
10088;SDS011;51898;49.864;8.550;2022-07-29T10:49:58;11.77;;;6.80;;
10088;SDS011;51898;49.864;8.550;2022-07-29T10:53:01;7.13;;;6.60;;
10088;SDS011;51898;49.864;8.550;2022-07-29T10:56:22;6.40;;;5.90;;
10088;SDS011;51898;49.864;8.550;2022-07-29T10:59:25;7.23;;;6.63;;
10088;SDS011;51898;49.864;8.550;2022-07-29T11:05:53;6.63;;;6.13;;
10088;SDS011;51898;49.864;8.550;2022-07-29T11:09:14;6.90;;;6.20;;
10088;SDS011;51898;49.864;8.550;2022-07-29T11:15:51;7.13;;;6.50;;
10088;SDS011;51898;49.864;8.550;2022-07-29T11:22:33;6.60;;;6.10;;
10088;SDS011;51898;49.864;8.550;2022-07-29T11:25:36;6.60;;;6.07;;
10088;SDS011;51898;49.864;8.550;2022-07-29T11:31:55;7.35;;;5.80;;
10088;SDS011;51898;49.864;8.550;2022-07-29T11:35:17;6.45;;;6.05;;
10088;SDS011;51898;49.864;8.550;2022-07-29T11:38:39;7.55;;;6.30;;
10088;SDS011;51898;49.864;8.550;2022-07-29T11:41:42;8.63;;;6.20;;
10088;SDS011;51898;49.864;8.550;2022-07-29T11:45:01;7.35;;;6.43;;
10088;SDS011;51898;49.864;8.550;2022-07-29T11:48:28;7.53;;;6.40;;
10088;SDS011;51898;49.864;8.550;2022-07-29T11:51:35;7.13;;;6.63;;
10088;SDS011;51898;49.864;8.550;2022-07-29T11:54:49;7.45;;;6.85;;
10088;SDS011;51898;49.864;8.550;2022-07-29T11:57:59;7.07;;;6.63;;
10088;SDS011;51898;49.864;8.550;2022-07-29T12:01:04;6.93;;;6.32;;
10088;SDS011;51898;49.864;8.550;2022-07-29T12:04:07;7.53;;;6.93;;
10088;SDS011;51898;49.864;8.550;2022-07-29T12:07:11;7.73;;;6.03;;
10088;SDS011;51898;49.864;8.550;2022-07-29T12:10:15;6.78;;;6.28;;
10088;SDS011;51898;49.864;8.550;2022-07-29T12:13:29;7.40;;;6.80;;
10088;SDS011;51898;49.864;8.550;2022-07-29T12:16:40;6.57;;;6.07;;
10088;SDS011;51898;49.864;8.550;2022-07-29T12:19:42;7.15;;;6.65;;
10088;SDS011;51898;49.864;8.550;2022-07-29T12:22:44;7.80;;;7.00;;
10088;SDS011;51898;49.864;8.550;2022-07-29T12:25:49;8.27;;;6.75;;
10088;SDS011;51898;49.864;8.550;2022-07-29T12:28:51;6.75;;;6.25;;
10088;SDS011;51898;49.864;8.550;2022-07-29T12:31:54;6.93;;;6.43;;
10088;SDS011;51898;49.864;8.550;2022-07-29T12:34:58;7.28;;;6.68;;
10088;SDS011;51898;49.864;8.550;2022-07-29T12:38:00;6.25;;;5.68;;
10088;SDS011;51898;49.864;8.550;2022-07-29T12:41:03;6.72;;;6.22;;
10088;SDS011;51898;49.864;8.550;2022-07-29T12:44:05;6.80;;;6.30;;
10088;SDS011;51898;49.864;8.550;2022-07-29T12:47:07;7.13;;;6.63;;
10088;SDS011;51898;49.864;8.550;2022-07-29T12:50:09;7.32;;;6.70;;
10088;SDS011;51898;49.864;8.550;2022-07-29T12:53:23;6.65;;;6.15;;
10088;SDS011;51898;49.864;8.550;2022-07-29T12:56:25;9.23;;;6.30;;
10088;SDS011;51898;49.864;8.550;2022-07-29T12:59:42;7.03;;;6.30;;
10088;SDS011;51898;49.864;8.550;2022-07-29T13:02:44;6.80;;;6.28;;
10088;SDS011;51898;49.864;8.550;2022-07-29T13:05:56;6.30;;;5.70;;
10088;SDS011;51898;49.864;8.550;2022-07-29T13:08:59;6.85;;;6.45;;
10088;SDS011;51898;49.864;8.550;2022-07-29T13:12:06;6.50;;;6.03;;
10088;SDS011;51898;49.864;8.550;2022-07-29T13:15:15;6.55;;;6.00;;
10088;SDS011;51898;49.864;8.550;2022-07-29T13:18:30;7.00;;;6.18;;
10088;SDS011;51898;49.864;8.550;2022-07-29T13:21:33;7.03;;;6.53;;
10088;SDS011;51898;49.864;8.550;2022-07-29T13:24:44;7.72;;;6.50;;
10088;SDS011;51898;49.864;8.550;2022-07-29T13:27:56;6.82;;;6.25;;
10088;SDS011;51898;49.864;8.550;2022-07-29T13:30:58;5.97;;;5.63;;
10088;SDS011;51898;49.864;8.550;2022-07-29T13:34:00;6.25;;;5.78;;
10088;SDS011;51898;49.864;8.550;2022-07-29T13:37:01;7.13;;;6.53;;
10088;SDS011;51898;49.864;8.550;2022-07-29T13:40:04;13.38;;;6.78;;
10088;SDS011;51898;49.864;8.550;2022-07-29T13:43:10;6.93;;;6.38;;
10088;SDS011;51898;49.864;8.550;2022-07-29T13:46:12;6.53;;;6.03;;
10088;SDS011;51898;49.864;8.550;2022-07-29T13:49:13;7.03;;;6.32;;
10088;SDS011;51898;49.864;8.550;2022-07-29T13:52:15;6.95;;;6.45;;
10088;SDS011;51898;49.864;8.550;2022-07-29T13:55:18;7.22;;;6.53;;
10088;SDS011;51898;49.864;8.550;2022-07-29T13:58:19;7.75;;;6.95;;
10088;SDS011;51898;49.864;8.550;2022-07-29T14:01:21;7.07;;;6.43;;
10088;SDS011;51898;49.864;8.550;2022-07-29T14:04:23;9.23;;;6.57;;
10088;SDS011;51898;49.864;8.550;2022-07-29T14:07:24;5.95;;;5.55;;
10088;SDS011;51898;49.864;8.550;2022-07-29T14:10:26;6.78;;;6.28;;
10088;SDS011;51898;49.864;8.550;2022-07-29T14:13:28;7.82;;;6.00;;
10088;SDS011;51898;49.864;8.550;2022-07-29T14:16:29;7.38;;;6.20;;
10088;SDS011;51898;49.864;8.550;2022-07-29T14:19:31;6.78;;;5.88;;
10088;SDS011;51898;49.864;8.550;2022-07-29T14:22:36;7.28;;;6.20;;
10088;SDS011;51898;49.864;8.550;2022-07-29T14:25:42;6.05;;;5.55;;
10088;SDS011;51898;49.864;8.550;2022-07-29T14:28:45;7.00;;;6.40;;
10088;SDS011;51898;49.864;8.550;2022-07-29T14:31:46;7.28;;;6.40;;
10088;SDS011;51898;49.864;8.550;2022-07-29T14:34:48;6.20;;;5.70;;
10088;SDS011;51898;49.864;8.550;2022-07-29T14:37:50;7.20;;;6.57;;
10088;SDS011;51898;49.864;8.550;2022-07-29T14:40:52;7.00;;;6.40;;
10088;SDS011;51898;49.864;8.550;2022-07-29T14:43:53;7.63;;;6.20;;
10088;SDS011;51898;49.864;8.550;2022-07-29T14:46:55;6.78;;;6.30;;
10088;SDS011;51898;49.864;8.550;2022-07-29T14:49:57;6.93;;;6.32;;
10088;SDS011;51898;49.864;8.550;2022-07-29T14:53:00;6.70;;;6.30;;
10088;SDS011;51898;49.864;8.550;2022-07-29T14:56:02;7.60;;;6.60;;
10088;SDS011;51898;49.864;8.550;2022-07-29T14:59:23;6.67;;;5.93;;
10088;SDS011;51898;49.864;8.550;2022-07-29T15:02:26;7.40;;;6.70;;
10088;SDS011;51898;49.864;8.550;2022-07-29T15:05:46;6.50;;;5.95;;
10088;SDS011;51898;49.864;8.550;2022-07-29T15:08:48;6.60;;;6.10;;
10088;SDS011;51898;49.864;8.550;2022-07-29T15:11:49;6.60;;;6.20;;
10088;SDS011;51898;49.864;8.550;2022-07-29T15:14:51;6.55;;;6.10;;
10088;SDS011;51898;49.864;8.550;2022-07-29T15:17:53;9.93;;;6.03;;
10088;SDS011;51898;49.864;8.550;2022-07-29T15:20:54;7.97;;;6.20;;
10088;SDS011;51898;49.864;8.550;2022-07-29T15:23:56;6.50;;;5.93;;
10088;SDS011;51898;49.864;8.550;2022-07-29T15:26:57;6.33;;;5.73;;
10088;SDS011;51898;49.864;8.550;2022-07-29T15:29:59;6.97;;;6.27;;
10088;SDS011;51898;49.864;8.550;2022-07-29T15:33:02;6.43;;;5.83;;
10088;SDS011;51898;49.864;8.550;2022-07-29T15:36:04;6.40;;;5.87;;
10088;SDS011;51898;49.864;8.550;2022-07-29T15:39:05;7.53;;;6.83;;
10088;SDS011;51898;49.864;8.550;2022-07-29T15:42:07;6.83;;;6.17;;
10088;SDS011;51898;49.864;8.550;2022-07-29T15:45:09;7.90;;;6.40;;
10088;SDS011;51898;49.864;8.550;2022-07-29T15:48:11;6.20;;;5.60;;
10088;SDS011;51898;49.864;8.550;2022-07-29T15:51:15;10.53;;;6.40;;
10088;SDS011;51898;49.864;8.550;2022-07-29T15:54:16;6.50;;;6.00;;
10088;SDS011;51898;49.864;8.550;2022-07-29T15:57:18;11.33;;;5.83;;
10088;SDS011;51898;49.864;8.550;2022-07-29T16:00:19;6.23;;;5.60;;
10088;SDS011;51898;49.864;8.550;2022-07-29T16:03:22;7.80;;;5.87;;
10088;SDS011;51898;49.864;8.550;2022-07-29T16:06:25;6.10;;;5.60;;
10088;SDS011;51898;49.864;8.550;2022-07-29T16:09:26;6.77;;;6.20;;
10088;SDS011;51898;49.864;8.550;2022-07-29T16:12:29;6.43;;;5.87;;
10088;SDS011;51898;49.864;8.550;2022-07-29T16:15:30;8.13;;;5.60;;
10088;SDS011;51898;49.864;8.550;2022-07-29T16:18:32;7.47;;;6.70;;
10088;SDS011;51898;49.864;8.550;2022-07-29T16:21:35;6.83;;;6.23;;
10088;SDS011;51898;49.864;8.550;2022-07-29T16:24:37;6.43;;;5.93;;
10088;SDS011;51898;49.864;8.550;2022-07-29T16:27:39;6.23;;;5.73;;
10088;SDS011;51898;49.864;8.550;2022-07-29T16:30:41;6.70;;;5.70;;
10088;SDS011;51898;49.864;8.550;2022-07-29T16:33:42;6.43;;;5.93;;
10088;SDS011;51898;49.864;8.550;2022-07-29T16:36:56;6.63;;;6.03;;
10088;SDS011;51898;49.864;8.550;2022-07-29T16:39:57;7.13;;;6.43;;
10088;SDS011;51898;49.864;8.550;2022-07-29T16:42:59;6.60;;;5.90;;
10088;SDS011;51898;49.864;8.550;2022-07-29T16:46:01;7.80;;;6.13;;
10088;SDS011;51898;49.864;8.550;2022-07-29T16:49:03;7.63;;;6.63;;
10088;SDS011;51898;49.864;8.550;2022-07-29T16:52:04;7.10;;;6.50;;
10088;SDS011;51898;49.864;8.550;2022-07-29T16:55:06;7.40;;;6.90;;
10088;SDS011;51898;49.864;8.550;2022-07-29T16:58:09;7.60;;;7.00;;
10088;SDS011;51898;49.864;8.550;2022-07-29T17:01:11;8.07;;;7.47;;
10088;SDS011;51898;49.864;8.550;2022-07-29T17:04:13;7.93;;;7.23;;
10088;SDS011;51898;49.864;8.550;2022-07-29T17:07:15;7.13;;;6.47;;
10088;SDS011;51898;49.864;8.550;2022-07-29T17:10:17;7.60;;;7.00;;
10088;SDS011;51898;49.864;8.550;2022-07-29T17:13:19;7.43;;;6.73;;
10088;SDS011;51898;49.864;8.550;2022-07-29T17:16:20;7.47;;;6.27;;
10088;SDS011;51898;49.864;8.550;2022-07-29T17:19:25;7.30;;;6.70;;
10088;SDS011;51898;49.864;8.550;2022-07-29T17:22:27;6.53;;;6.03;;
10088;SDS011;51898;49.864;8.550;2022-07-29T17:25:28;6.80;;;6.20;;
10088;SDS011;51898;49.864;8.550;2022-07-29T17:28:30;6.17;;;5.70;;
10088;SDS011;51898;49.864;8.550;2022-07-29T17:31:32;6.70;;;6.10;;
10088;SDS011;51898;49.864;8.550;2022-07-29T17:34:37;6.23;;;5.83;;
10088;SDS011;51898;49.864;8.550;2022-07-29T17:37:40;6.10;;;5.70;;
10088;SDS011;51898;49.864;8.550;2022-07-29T17:40:42;6.03;;;5.53;;
10088;SDS011;51898;49.864;8.550;2022-07-29T17:43:43;6.33;;;5.80;;
10088;SDS011;51898;49.864;8.550;2022-07-29T17:46:45;5.27;;;4.97;;
10088;SDS011;51898;49.864;8.550;2022-07-29T17:49:47;5.50;;;5.00;;
10088;SDS011;51898;49.864;8.550;2022-07-29T17:52:49;6.17;;;5.60;;
10088;SDS011;51898;49.864;8.550;2022-07-29T17:55:50;5.90;;;5.40;;
10088;SDS011;51898;49.864;8.550;2022-07-29T17:58:52;5.90;;;5.40;;
10088;SDS011;51898;49.864;8.550;2022-07-29T18:01:54;5.63;;;5.23;;
10088;SDS011;51898;49.864;8.550;2022-07-29T18:04:56;6.03;;;5.53;;
10088;SDS011;51898;49.864;8.550;2022-07-29T18:07:58;5.80;;;5.40;;
10088;SDS011;51898;49.864;8.550;2022-07-29T18:10:59;5.70;;;5.20;;
10088;SDS011;51898;49.864;8.550;2022-07-29T18:14:02;5.37;;;5.00;;
10088;SDS011;51898;49.864;8.550;2022-07-29T18:17:04;6.80;;;6.13;;
10088;SDS011;51898;49.864;8.550;2022-07-29T18:20:06;6.23;;;5.60;;
10088;SDS011;51898;49.864;8.550;2022-07-29T18:23:08;6.23;;;5.67;;
10088;SDS011;51898;49.864;8.550;2022-07-29T18:26:10;6.53;;;5.83;;
10088;SDS011;51898;49.864;8.550;2022-07-29T18:29:12;5.90;;;5.40;;
10088;SDS011;51898;49.864;8.550;2022-07-29T18:32:13;6.03;;;5.50;;
10088;SDS011;51898;49.864;8.550;2022-07-29T18:35:15;5.60;;;5.00;;
10088;SDS011;51898;49.864;8.550;2022-07-29T18:38:17;10.10;;;5.40;;
10088;SDS011;51898;49.864;8.550;2022-07-29T18:41:19;5.87;;;5.37;;
10088;SDS011;51898;49.864;8.550;2022-07-29T18:44:21;5.60;;;5.10;;
10088;SDS011;51898;49.864;8.550;2022-07-29T18:47:25;6.53;;;5.67;;
10088;SDS011;51898;49.864;8.550;2022-07-29T18:50:32;5.73;;;5.23;;
10088;SDS011;51898;49.864;8.550;2022-07-29T18:53:34;5.77;;;5.27;;
10088;SDS011;51898;49.864;8.550;2022-07-29T18:56:37;8.17;;;5.60;;